createdAt,value
2022-11-07T00:02:15.106Z,97711.44
2022-11-07T00:04:43.602Z,97704.97
2022-11-07T00:07:12.795Z,97711.88
2022-11-07T00:09:41.321Z,97713.16
2022-11-07T00:12:09.850Z,97711.59
2022-11-07T00:14:38.231Z,97714.19
2022-11-07T00:17:08.636Z,97714.81
2022-11-07T00:19:37.721Z,97711.59
2022-11-07T00:22:06.186Z,97705.13
2022-11-07T00:24:34.722Z,97712.19
2022-11-07T00:27:03.412Z,97709.00
2022-11-07T00:29:31.856Z,97710.81
2022-11-07T00:32:00.256Z,97716.50
2022-11-07T00:34:29.195Z,97711.66
2022-11-07T00:36:57.588Z,97712.19
2022-11-07T00:39:26.086Z,97717.78
2022-11-07T00:41:54.383Z,97715.47
2022-11-07T00:44:23.136Z,97716.06
2022-11-07T00:46:51.535Z,97714.03
2022-11-07T00:49:19.990Z,97711.94
2022-11-07T00:51:48.332Z,97714.44
2022-11-07T00:54:16.764Z,97712.44
2022-11-07T00:56:45.740Z,97706.13
2022-11-07T00:59:14.179Z,97701.59
2022-11-07T01:01:42.760Z,97703.47
2022-11-07T01:04:31.478Z,97701.78
2022-11-07T01:06:59.950Z,97699.41
2022-11-07T01:09:28.327Z,97702.19
2022-11-07T01:11:56.835Z,97700.28
2022-11-07T01:14:26.031Z,97700.72
2022-11-07T01:16:54.569Z,97698.72
2022-11-07T01:19:22.952Z,97698.97
2022-11-07T01:21:52.104Z,97700.13
2022-11-07T01:24:20.555Z,97700.97
2022-11-07T01:26:49.325Z,97698.72
2022-11-07T01:29:18.206Z,97699.50
2022-11-07T01:31:46.730Z,97703.47
2022-11-07T01:34:15.237Z,97698.91
2022-11-07T01:36:44.201Z,97690.19
2022-11-07T01:39:12.607Z,97692.19
2022-11-07T01:41:41.094Z,97689.75
2022-11-07T01:44:09.298Z,97690.25
2022-11-07T01:46:39.168Z,97692.63
2022-11-07T01:49:14.058Z,97687.34
2022-11-07T01:51:45.380Z,97698.25
2022-11-07T01:54:14.123Z,97690.28
2022-11-07T01:56:42.826Z,97689.06
2022-11-07T01:59:12.848Z,97678.03
2022-11-07T02:01:42.066Z,97666.22
2022-11-07T02:04:10.581Z,97670.47
2022-11-07T02:06:50.298Z,97666.38
2022-11-07T02:09:18.661Z,97666.97
2022-11-07T02:11:47.009Z,97673.97
2022-11-07T02:14:16.639Z,97680.91
2022-11-07T02:16:45.240Z,97670.53
2022-11-07T02:19:41.163Z,97673.66
2022-11-07T02:22:22.917Z,97667.16
2022-11-07T02:24:52.806Z,97676.00
2022-11-07T02:27:22.025Z,97675.56
2022-11-07T02:29:52.142Z,97676.00
2022-11-07T02:32:20.645Z,97674.94
2022-11-07T02:35:03.220Z,97680.72
2022-11-07T02:37:34.460Z,97686.56
2022-11-07T02:40:08.299Z,97683.13
2022-11-07T02:42:43.892Z,97686.72
2022-11-07T02:45:27.094Z,97696.41
2022-11-07T02:47:55.647Z,97694.56
2022-11-07T02:50:24.086Z,97701.44
2022-11-07T02:52:52.562Z,97705.81
2022-11-07T02:55:21.030Z,97708.47
2022-11-07T02:57:49.488Z,97712.25
2022-11-07T03:00:17.928Z,97714.00
2022-11-07T03:02:50.164Z,97718.72
2022-11-07T03:05:19.339Z,97718.19
2022-11-07T03:07:48.749Z,97725.63
2022-11-07T03:10:17.450Z,97718.19
2022-11-07T03:12:46.961Z,97734.56
2022-11-07T03:15:15.521Z,97740.44
2022-11-07T03:17:43.935Z,97738.19
2022-11-07T03:20:13.160Z,97736.41
2022-11-07T03:22:42.242Z,97732.25
2022-11-07T03:25:10.837Z,97737.63
2022-11-07T03:27:49.405Z,97728.38
2022-11-07T03:30:18.831Z,97739.16
2022-11-07T03:32:47.195Z,97739.41
2022-11-07T03:35:16.034Z,97732.25
2022-11-07T03:37:46.961Z,97737.59
2022-11-07T03:40:15.772Z,97732.69
2022-11-07T03:42:45.270Z,97737.59
2022-11-07T03:45:14.677Z,97731.91
2022-11-07T03:47:44.499Z,97733.31
2022-11-07T03:50:18.063Z,97729.06
2022-11-07T03:52:47.935Z,97727.41
2022-11-07T03:55:18.630Z,97728.44
2022-11-07T03:57:47.433Z,97725.34
2022-11-07T04:00:16.372Z,97724.44
2022-11-07T04:02:44.991Z,97734.41
2022-11-07T04:05:13.448Z,97727.38
2022-11-07T04:07:41.808Z,97738.53
2022-11-07T04:10:10.200Z,97741.00
2022-11-07T04:12:57.240Z,97732.25
2022-11-07T04:15:43.934Z,97742.16
2022-11-07T04:18:12.281Z,97737.84
2022-11-07T04:20:40.651Z,97743.03
2022-11-07T04:23:09.036Z,97751.47
2022-11-07T04:25:55.874Z,97746.13
2022-11-07T04:28:24.220Z,97752.94
2022-11-07T04:30:52.546Z,97764.28
2022-11-07T04:33:21.073Z,97758.00
2022-11-07T04:35:49.416Z,97761.97
2022-11-07T04:38:17.902Z,97768.44
2022-11-07T04:40:46.313Z,97776.63
2022-11-07T04:43:14.920Z,97772.09
2022-11-07T04:45:43.541Z,97775.34
2022-11-07T04:48:13.131Z,97776.06
2022-11-07T04:50:41.514Z,97781.09
2022-11-07T04:53:14.115Z,97779.47
2022-11-07T04:55:42.997Z,97783.53
2022-11-07T04:58:11.419Z,97785.69
2022-11-07T05:00:39.699Z,97784.84
2022-11-07T05:03:08.921Z,97770.22
2022-11-07T05:05:37.353Z,97773.03
2022-11-07T05:08:06.295Z,97774.75
2022-11-07T05:10:35.058Z,97772.91
2022-11-07T05:13:03.491Z,97771.03
2022-11-07T05:15:31.927Z,97776.88
2022-11-07T05:18:00.353Z,97786.69
2022-11-07T05:20:36.252Z,97796.19
2022-11-07T05:23:15.985Z,97792.06
2022-11-07T05:25:53.891Z,97788.44
2022-11-07T05:28:35.321Z,97794.81
2022-11-07T05:31:07.585Z,97804.28
2022-11-07T05:33:36.111Z,97808.94
2022-11-07T05:36:14.396Z,97811.69
2022-11-07T05:38:44.256Z,97804.72
2022-11-07T05:41:13.285Z,97808.69
2022-11-07T05:43:41.885Z,97806.38
2022-11-07T05:46:10.248Z,97811.81
2022-11-07T05:48:38.679Z,97811.81
2022-11-07T05:51:07.398Z,97816.53
2022-11-07T05:53:35.853Z,97809.81
2022-11-07T05:56:04.469Z,97825.41
2022-11-07T05:58:33.060Z,97828.50
2022-11-07T06:01:05.651Z,97833.16
2022-11-07T06:03:34.271Z,97833.38
2022-11-07T06:06:02.656Z,97835.41
2022-11-07T06:08:31.059Z,97834.09
2022-11-07T06:10:59.536Z,97842.72
2022-11-07T06:13:28.085Z,97844.44
2022-11-07T06:15:56.631Z,97839.28
2022-11-07T06:18:25.041Z,97847.03
2022-11-07T06:20:53.498Z,97839.97
2022-11-07T06:23:21.962Z,97842.72
2022-11-07T06:25:51.186Z,97856.22
2022-11-07T06:28:19.560Z,97847.91
2022-11-07T06:30:47.987Z,97846.00
2022-11-07T06:33:18.666Z,97851.03
2022-11-07T06:35:47.686Z,97864.72
2022-11-07T06:38:16.041Z,97857.56
2022-11-07T06:40:44.635Z,97865.41
2022-11-07T06:43:18.174Z,97859.72
2022-11-07T06:45:47.221Z,97867.28
2022-11-07T06:48:16.487Z,97871.72
2022-11-07T06:50:45.137Z,97877.28
2022-11-07T06:53:14.486Z,97876.00
2022-11-07T06:55:43.289Z,97871.88
2022-11-07T06:58:11.885Z,97878.34
2022-11-07T07:00:40.353Z,97873.16
2022-11-07T07:03:08.826Z,97877.72
2022-11-07T07:05:37.377Z,97877.47
2022-11-07T07:08:06.469Z,97877.03
2022-11-07T07:10:40.083Z,97881.22
2022-11-07T07:13:08.498Z,97874.03
2022-11-07T07:15:49.854Z,97882.81
2022-11-07T07:18:20.093Z,97879.44
2022-11-07T07:20:49.395Z,97876.47
2022-11-07T07:23:18.955Z,97880.06
2022-11-07T07:25:47.907Z,97884.22
2022-11-07T07:28:16.340Z,97882.88
2022-11-07T07:30:50.292Z,97891.13
2022-11-07T07:33:21.248Z,97886.19
2022-11-07T07:35:49.577Z,97893.88
2022-11-07T07:38:18.452Z,97898.19
2022-11-07T07:40:46.801Z,97897.16
2022-11-07T07:43:15.605Z,97905.59
2022-11-07T07:45:44.398Z,97900.75
2022-11-07T07:48:12.827Z,97903.94
2022-11-07T07:50:41.191Z,97895.72
2022-11-07T07:53:09.632Z,97892.13
2022-11-07T07:55:38.149Z,97902.75
2022-11-07T07:58:06.610Z,97906.94
2022-11-07T08:00:35.242Z,97899.81
2022-11-07T08:03:06.122Z,97909.97
2022-11-07T08:05:34.837Z,97913.97
2022-11-07T08:08:03.369Z,97914.13
2022-11-07T08:10:47.193Z,97919.00
2022-11-07T08:13:15.835Z,97919.88
2022-11-07T08:15:44.546Z,97913.81
2022-11-07T08:18:12.891Z,97909.97
2022-11-07T08:20:41.266Z,97913.25
2022-11-07T08:23:16.052Z,97907.88
2022-11-07T08:25:56.053Z,97898.88
2022-11-07T08:28:26.016Z,97906.25
2022-11-07T08:30:59.977Z,97913.75
2022-11-07T08:33:28.648Z,97914.97
2022-11-07T08:35:58.072Z,97920.13
2022-11-07T08:38:27.111Z,97914.59
2022-11-07T08:40:55.720Z,97909.84
2022-11-07T08:43:24.160Z,97920.00
2022-11-07T08:45:53.334Z,97922.69
2022-11-07T08:48:21.889Z,97915.94
2022-11-07T08:50:59.585Z,97913.22
2022-11-07T08:53:28.133Z,97914.44
2022-11-07T08:56:07.495Z,97913.00
2022-11-07T08:58:36.783Z,97914.41
2022-11-07T09:01:09.384Z,97914.97
2022-11-07T09:03:50.187Z,97910.56
2022-11-07T09:06:21.771Z,97910.31
2022-11-07T09:08:50.458Z,97905.03
2022-11-07T09:11:19.468Z,97911.13
2022-11-07T09:13:48.140Z,97916.31
2022-11-07T09:16:17.877Z,97912.91
2022-11-07T09:18:47.543Z,97915.22
2022-11-07T09:21:21.802Z,97910.81
2022-11-07T09:23:52.110Z,97908.13
2022-11-07T09:26:20.724Z,97910.63
2022-11-07T09:28:52.290Z,97919.97
2022-11-07T09:31:23.652Z,97914.16
2022-11-07T09:33:52.188Z,97911.53
2022-11-07T09:36:22.494Z,97912.44
2022-11-07T09:38:51.252Z,97909.38
2022-11-07T09:41:32.672Z,97911.88
2022-11-07T09:44:33.319Z,97910.22
2022-11-07T09:47:17.475Z,97902.88
2022-11-07T09:49:52.750Z,97906.16
2022-11-07T09:52:26.770Z,97901.66
2022-11-07T09:55:20.703Z,97893.41
2022-11-07T09:57:49.355Z,97900.59
2022-11-07T10:00:19.221Z,97897.59
2022-11-07T10:02:55.734Z,97894.31
2022-11-07T10:05:49.419Z,97894.63
2022-11-07T10:08:41.729Z,97882.38
2022-11-07T10:11:22.150Z,97881.47
2022-11-07T10:13:58.435Z,97887.88
2022-11-07T10:17:09.002Z,97883.50
2022-11-07T10:19:42.845Z,97870.97
2022-11-07T10:22:31.420Z,97881.59
2022-11-07T10:25:24.395Z,97868.94
2022-11-07T10:28:14.121Z,97870.19
2022-11-07T10:30:48.853Z,97867.38
2022-11-07T10:33:17.565Z,97867.81
2022-11-07T10:35:55.283Z,97881.09
2022-11-07T10:38:27.131Z,97863.03
2022-11-07T10:40:55.703Z,97873.09
2022-11-07T10:43:34.311Z,97866.28
2022-11-07T10:46:03.571Z,97864.13
2022-11-07T10:48:33.593Z,97863.88
2022-11-07T10:51:02.051Z,97854.41
2022-11-07T10:53:30.722Z,97855.72
2022-11-07T10:55:59.220Z,97851.59
2022-11-07T10:58:29.306Z,97851.16
2022-11-07T11:01:06.504Z,97854.00
2022-11-07T11:03:45.142Z,97855.97
2022-11-07T11:06:20.092Z,97847.28
2022-11-07T11:08:49.939Z,97846.81
2022-11-07T11:11:24.278Z,97848.28
2022-11-07T11:14:04.401Z,97846.41
2022-11-07T11:16:35.835Z,97834.84
2022-11-07T11:19:04.648Z,97830.94
2022-11-07T11:21:41.451Z,97832.50
2022-11-07T11:24:39.892Z,97823.66
2022-11-07T11:27:13.276Z,97820.13
2022-11-07T11:29:54.964Z,97817.69
2022-11-07T11:32:29.513Z,97809.59
2022-11-07T11:35:06.485Z,97804.25
2022-11-07T11:37:36.675Z,97808.16
2022-11-07T11:40:05.094Z,97794.66
2022-11-07T11:43:01.274Z,97807.13
2022-11-07T11:45:59.484Z,97800.53
2022-11-07T11:48:49.826Z,97800.44
2022-11-07T11:51:39.358Z,97798.06
2022-11-07T11:54:11.484Z,97791.59
2022-11-07T11:56:49.975Z,97790.50
2022-11-07T11:59:34.419Z,97787.06
2022-11-07T12:02:30.465Z,97781.69
2022-11-07T12:05:16.447Z,97784.03
2022-11-07T12:08:09.210Z,97777.97
2022-11-07T12:11:00.446Z,97776.38
2022-11-07T12:13:51.567Z,97767.88
2022-11-07T12:16:38.843Z,97771.03
2022-11-07T12:19:28.930Z,97771.22
2022-11-07T12:22:16.204Z,97769.19
2022-11-07T12:25:20.786Z,97769.31
2022-11-07T12:28:24.231Z,97769.91
2022-11-07T12:31:08.038Z,97774.66
2022-11-07T12:34:17.870Z,97762.38
2022-11-07T12:37:01.298Z,97769.97
2022-11-07T12:39:50.543Z,97764.19
2022-11-07T12:42:41.914Z,97765.03
2022-11-07T12:45:52.162Z,97765.84
2022-11-07T12:48:20.596Z,97757.09
2022-11-07T12:51:15.544Z,97760.84
2022-11-07T12:53:43.938Z,97759.81
2022-11-07T12:56:14.763Z,97755.09
2022-11-07T12:58:43.808Z,97762.59
2022-11-07T13:01:14.017Z,97763.56
2022-11-07T13:03:51.794Z,97761.19
2022-11-07T13:06:40.175Z,97764.94
2022-11-07T13:09:23.547Z,97761.91
2022-11-07T13:12:23.396Z,97755.88
2022-11-07T13:14:51.934Z,97757.28
2022-11-07T13:17:21.787Z,97757.50
2022-11-07T13:20:05.255Z,97754.91
2022-11-07T13:22:36.664Z,97753.16
2022-11-07T13:25:17.613Z,97761.38
2022-11-07T13:27:55.939Z,97757.06
2022-11-07T13:30:36.336Z,97761.19
2022-11-07T13:33:05.382Z,97759.31
2022-11-07T13:35:38.073Z,97763.09
2022-11-07T13:38:12.359Z,97769.47
2022-11-07T13:40:45.718Z,97766.88
2022-11-07T13:43:46.645Z,97762.00
2022-11-07T13:46:48.259Z,97771.13
2022-11-07T13:49:37.744Z,97767.81
2022-11-07T13:52:49.065Z,97766.44
2022-11-07T13:55:22.777Z,97766.88
2022-11-07T13:58:13.400Z,97774.25
2022-11-07T14:00:41.907Z,97768.31
2022-11-07T14:03:24.436Z,97769.13
2022-11-07T14:05:53.130Z,97762.53
2022-11-07T14:08:36.015Z,97769.53
2022-11-07T14:11:05.038Z,97772.47
2022-11-07T14:13:40.675Z,97767.91
2022-11-07T14:16:26.684Z,97769.78
2022-11-07T14:19:07.820Z,97773.50
2022-11-07T14:21:37.764Z,97772.81
2022-11-07T14:24:24.306Z,97765.22
2022-11-07T14:27:05.022Z,97763.66
2022-11-07T14:29:33.531Z,97771.81
2022-11-07T14:32:03.515Z,97777.19
2022-11-07T14:34:35.407Z,97774.38
2022-11-07T14:37:06.535Z,97779.41
2022-11-07T14:39:35.163Z,97775.84
2022-11-07T14:42:03.803Z,97775.47
2022-11-07T14:47:29.792Z,97777.03
2022-11-07T14:49:58.450Z,97774.44
2022-11-07T14:52:35.508Z,97777.50
2022-11-07T14:55:08.512Z,97782.66
2022-11-07T14:57:37.551Z,97786.81
2022-11-07T15:00:13.683Z,97778.94
2022-11-07T15:02:42.317Z,97786.03
2022-11-07T15:05:44.273Z,97783.66
2022-11-07T15:08:31.079Z,97781.63
2022-11-07T15:11:14.894Z,97790.38
2022-11-07T15:13:43.421Z,97788.41
2022-11-07T15:16:15.959Z,97791.88
2022-11-07T15:18:46.829Z,97787.16
2022-11-07T15:21:36.367Z,97788.72
2022-11-07T15:24:35.413Z,97790.75
2022-11-07T15:27:18.261Z,97790.09
2022-11-07T15:29:59.835Z,97796.88
2022-11-07T15:32:35.939Z,97800.34
2022-11-07T15:35:44.059Z,97801.16
2022-11-07T15:38:25.473Z,97802.75
2022-11-07T15:40:54.217Z,97795.09
2022-11-07T15:43:24.454Z,97800.47
2022-11-07T15:45:53.236Z,97805.97
2022-11-07T15:48:23.420Z,97804.56
2022-11-07T15:50:51.891Z,97807.06
2022-11-07T15:53:27.149Z,97810.69
2022-11-07T15:55:59.166Z,97812.97
2022-11-07T15:58:29.037Z,97808.56
2022-11-07T16:00:57.837Z,97813.50
2022-11-07T16:03:26.893Z,97812.41
2022-11-07T16:05:58.523Z,97810.00
2022-11-07T16:08:27.107Z,97812.50
2022-11-07T16:10:57.682Z,97808.19
2022-11-07T16:13:26.169Z,97814.28
2022-11-07T16:15:57.476Z,97817.91
2022-11-07T16:18:25.936Z,97815.34
2022-11-07T16:20:54.482Z,97814.31
2022-11-07T16:23:23.162Z,97826.41
2022-11-07T16:25:51.987Z,97824.16
2022-11-07T16:28:23.553Z,97824.34
2022-11-07T16:30:53.413Z,97840.38
2022-11-07T16:33:22.238Z,97835.88
2022-11-07T16:35:52.518Z,97839.03
2022-11-07T16:38:21.597Z,97831.41
2022-11-07T16:40:50.403Z,97841.94
2022-11-07T16:43:19.067Z,97845.25
2022-11-07T16:45:52.289Z,97847.84
2022-11-07T16:48:27.700Z,97850.06
2022-11-07T16:50:56.900Z,97849.25
2022-11-07T16:53:26.378Z,97849.59
2022-11-07T16:55:55.687Z,97845.50
2022-11-07T16:58:29.452Z,97853.72
2022-11-07T17:00:59.889Z,97863.00
2022-11-07T17:03:29.647Z,97853.88
2022-11-07T17:05:59.486Z,97855.25
2022-11-07T17:08:44.064Z,97851.28
2022-11-07T17:11:16.410Z,97851.63
2022-11-07T17:13:45.295Z,97850.16
2022-11-07T17:16:20.349Z,97845.75
2022-11-07T17:18:49.495Z,97839.84
2022-11-07T17:21:22.910Z,97837.66
2022-11-07T17:23:52.014Z,97837.88
2022-11-07T17:26:22.429Z,97828.81
2022-11-07T17:28:52.313Z,97826.69
2022-11-07T17:31:22.334Z,97826.56
2022-11-07T17:33:50.845Z,97826.44
2022-11-07T17:36:37.753Z,97829.47
2022-11-07T17:39:11.669Z,97823.47
2022-11-07T17:41:41.101Z,97828.66
2022-11-07T17:44:09.905Z,97826.13
2022-11-07T17:46:41.824Z,97820.56
2022-11-07T17:49:11.385Z,97819.56
2022-11-07T17:51:42.346Z,97826.41
2022-11-07T17:54:13.046Z,97828.75
2022-11-07T17:56:41.894Z,97821.03
2022-11-07T17:59:17.835Z,97830.72
2022-11-07T18:01:46.606Z,97812.22
2022-11-07T18:04:15.413Z,97824.41
2022-11-07T18:06:44.257Z,97816.19
2022-11-07T18:09:14.957Z,97815.84
2022-11-07T18:11:44.205Z,97813.38
2022-11-07T18:14:13.511Z,97811.34
2022-11-07T18:16:42.052Z,97800.09
2022-11-07T18:19:11.012Z,97820.78
2022-11-07T18:21:40.395Z,97808.84
2022-11-07T18:24:11.290Z,97803.81
2022-11-07T18:26:40.363Z,97800.53
2022-11-07T18:29:13.266Z,97800.63
2022-11-07T18:31:41.958Z,97795.94
2022-11-07T18:34:12.023Z,97799.50
2022-11-07T18:36:42.207Z,97804.34
2022-11-07T18:39:22.338Z,97792.69
2022-11-07T18:41:52.080Z,97789.38
2022-11-07T18:44:20.586Z,97792.66
2022-11-07T18:46:49.074Z,97794.53
2022-11-07T18:49:19.944Z,97802.53
2022-11-07T18:51:48.462Z,97798.69
2022-11-07T18:54:17.086Z,97795.16
2022-11-07T18:56:46.917Z,97790.53
2022-11-07T18:59:15.760Z,97791.31
2022-11-07T19:01:44.417Z,97786.69
2022-11-07T19:04:13.213Z,97787.72
2022-11-07T19:06:57.337Z,97788.69
2022-11-07T19:09:32.701Z,97787.16
2022-11-07T19:12:01.366Z,97788.56
2022-11-07T19:14:30.558Z,97792.28
2022-11-07T19:16:59.113Z,97794.38
2022-11-07T19:19:28.973Z,97804.13
2022-11-07T19:22:02.142Z,97806.84
2022-11-07T19:24:47.107Z,97800.09
2022-11-07T19:27:28.781Z,97813.63
2022-11-07T19:30:15.393Z,97816.22
2022-11-07T19:32:59.400Z,97811.25
2022-11-07T19:35:55.814Z,97812.03
2022-11-07T19:38:40.267Z,97820.75
2022-11-07T19:41:26.943Z,97828.22
2022-11-07T19:44:15.055Z,97820.94
2022-11-07T19:47:02.622Z,97832.41
2022-11-07T19:49:49.941Z,97821.22
2022-11-07T19:52:24.125Z,97828.19
2022-11-07T19:54:53.412Z,97821.44
2022-11-07T19:57:24.010Z,97822.44
2022-11-07T19:59:54.697Z,97820.25
2022-11-07T20:02:33.106Z,97820.06
2022-11-07T20:05:02.788Z,97824.72
2022-11-07T20:07:32.604Z,97820.81
2022-11-07T20:10:01.998Z,97826.25
2022-11-07T20:12:30.467Z,97830.38
2022-11-07T20:14:59.044Z,97831.59
2022-11-07T20:17:27.406Z,97832.09
2022-11-07T20:19:58.849Z,97838.41
2022-11-07T20:22:29.783Z,97846.69
2022-11-07T20:24:58.429Z,97846.41
2022-11-07T20:27:28.491Z,97837.84
2022-11-07T20:29:58.805Z,97845.56
2022-11-07T20:32:27.938Z,97838.03
2022-11-07T20:34:56.591Z,97842.47
2022-11-07T20:37:25.178Z,97845.16
2022-11-07T20:39:53.770Z,97840.19
2022-11-07T20:42:22.277Z,97839.91
2022-11-07T20:44:51.834Z,97843.72
2022-11-07T20:47:20.450Z,97839.16
2022-11-07T20:49:48.912Z,97840.63
2022-11-07T20:52:17.442Z,97840.91
2022-11-07T20:54:45.870Z,97842.91
2022-11-07T20:57:14.336Z,97851.50
2022-11-07T20:59:42.787Z,97853.34
2022-11-07T21:02:14.188Z,97856.16
2022-11-07T21:05:03.079Z,97865.41
2022-11-07T21:07:31.320Z,97856.16
2022-11-07T21:09:59.747Z,97869.41
2022-11-07T21:12:28.228Z,97870.72
2022-11-07T21:14:56.773Z,97877.63
2022-11-07T21:17:26.027Z,97889.06
2022-11-07T21:19:54.465Z,97885.91
2022-11-07T21:22:28.128Z,97900.06
2022-11-07T21:24:57.773Z,97892.94
2022-11-07T21:27:26.273Z,97908.53
2022-11-07T21:29:54.741Z,97919.53
2022-11-07T21:32:23.190Z,97905.50
2022-11-07T21:34:51.668Z,97928.59
2022-11-07T21:37:20.240Z,97912.13
2022-11-07T21:39:48.834Z,97919.09
2022-11-07T21:42:17.286Z,97919.56
2022-11-07T21:44:45.709Z,97912.56
2022-11-07T21:47:14.036Z,97925.84
2022-11-07T21:49:42.451Z,97917.06
2022-11-07T21:52:11.690Z,97919.56
2022-11-07T21:54:40.145Z,97917.84
2022-11-07T21:57:08.564Z,97922.41
2022-11-07T21:59:37.079Z,97918.88
2022-11-07T22:02:05.608Z,97921.09
2022-11-07T22:04:34.057Z,97920.41
2022-11-07T22:07:02.682Z,97926.63
2022-11-07T22:09:31.056Z,97922.16
2022-11-07T22:11:59.384Z,97934.56
2022-11-07T22:14:27.808Z,97921.75
2022-11-07T22:16:56.967Z,97934.13
2022-11-07T22:19:26.210Z,97935.25
2022-11-07T22:21:54.607Z,97943.09
2022-11-07T22:24:26.291Z,97945.09
2022-11-07T22:26:56.031Z,97944.09
2022-11-07T22:29:24.381Z,97942.47
2022-11-07T22:31:52.815Z,97936.91
2022-11-07T22:34:21.190Z,97937.84
2022-11-07T22:36:50.529Z,97953.78
2022-11-07T22:39:19.035Z,97947.91
2022-11-07T22:41:47.447Z,97945.44
2022-11-07T22:44:15.837Z,97945.81
2022-11-07T22:46:44.292Z,97942.00
2022-11-07T22:49:12.647Z,97944.00
2022-11-07T22:51:41.147Z,97949.00
2022-11-07T22:54:11.873Z,97945.00
2022-11-07T22:56:40.445Z,97950.03
2022-11-07T22:59:10.638Z,97953.28
2022-11-07T23:01:40.503Z,97954.81
2022-11-07T23:04:10.650Z,97951.28
2022-11-07T23:06:38.994Z,97941.38
2022-11-07T23:09:07.370Z,97955.59
2022-11-07T23:11:51.614Z,97948.91
2022-11-07T23:14:21.213Z,97950.50
2022-11-07T23:16:51.044Z,97963.28
2022-11-07T23:19:21.776Z,97955.03
2022-11-07T23:21:51.603Z,97961.03
2022-11-07T23:24:20.981Z,97955.94
2022-11-07T23:26:50.513Z,97950.34
2022-11-07T23:29:21.000Z,97950.78
2022-11-07T23:31:50.105Z,97944.59
2022-11-07T23:34:19.131Z,97936.63
2022-11-07T23:36:50.145Z,97938.41
2022-11-07T23:39:20.107Z,97936.25
2022-11-07T23:41:48.474Z,97917.13
2022-11-07T23:44:16.917Z,97915.56
2022-11-07T23:47:03.821Z,97913.47
2022-11-07T23:49:55.929Z,97913.78
2022-11-07T23:52:25.505Z,97915.78
2022-11-07T23:55:12.205Z,97905.50
2022-11-07T23:57:59.013Z,97918.59
